sensor_id;sensor_type;location;lat;lon;timestamp;P1;durP1;ratioP1;P2;durP2;ratioP2
31112;SDS011;17763;48.730;9.136;2024-03-23T00:53:51;3.97;;;2.40;;
31112;SDS011;17763;48.730;9.136;2024-03-23T00:56:16;3.75;;;2.63;;
31112;SDS011;17763;48.730;9.136;2024-03-23T00:58:42;3.47;;;2.78;;
31112;SDS011;17763;48.730;9.136;2024-03-23T01:01:07;4.07;;;3.05;;
31112;SDS011;17763;48.730;9.136;2024-03-23T01:03:33;3.33;;;2.50;;
31112;SDS011;17763;48.730;9.136;2024-03-23T01:06:01;4.50;;;2.60;;
31112;SDS011;17763;48.730;9.136;2024-03-23T01:08:29;3.10;;;2.63;;
31112;SDS011;17763;48.730;9.136;2024-03-23T01:10:59;4.50;;;2.90;;
31112;SDS011;17763;48.730;9.136;2024-03-23T01:13:25;2.60;;;2.40;;
31112;SDS011;17763;48.730;9.136;2024-03-23T01:15:51;3.13;;;2.83;;
31112;SDS011;17763;48.730;9.136;2024-03-23T01:18:18;2.83;;;2.63;;
31112;SDS011;17763;48.730;9.136;2024-03-23T01:20:44;3.50;;;2.47;;
31112;SDS011;17763;48.730;9.136;2024-03-23T01:23:10;4.00;;;2.95;;
31112;SDS011;17763;48.730;9.136;2024-03-23T01:25:36;2.58;;;2.38;;
31112;SDS011;17763;48.730;9.136;2024-03-23T01:28:02;3.03;;;2.58;;
31112;SDS011;17763;48.730;9.136;2024-03-23T01:30:31;3.75;;;2.55;;
31112;SDS011;17763;48.730;9.136;2024-03-23T01:32:57;4.63;;;3.15;;
31112;SDS011;17763;48.730;9.136;2024-03-23T01:35:23;4.53;;;2.33;;
31112;SDS011;17763;48.730;9.136;2024-03-23T01:37:48;2.92;;;2.20;;
31112;SDS011;17763;48.730;9.136;2024-03-23T01:40:17;5.47;;;2.70;;
31112;SDS011;17763;48.730;9.136;2024-03-23T01:42:42;3.50;;;2.47;;
31112;SDS011;17763;48.730;9.136;2024-03-23T01:45:19;3.83;;;3.35;;
31112;SDS011;17763;48.730;9.136;2024-03-23T01:47:45;2.85;;;2.60;;
31112;SDS011;17763;48.730;9.136;2024-03-23T01:50:11;4.30;;;2.70;;
31112;SDS011;17763;48.730;9.136;2024-03-23T01:52:37;5.57;;;3.55;;
31112;SDS011;17763;48.730;9.136;2024-03-23T01:55:02;2.97;;;2.75;;
31112;SDS011;17763;48.730;9.136;2024-03-23T01:57:30;5.65;;;3.45;;
31112;SDS011;17763;48.730;9.136;2024-03-23T01:59:56;3.97;;;3.10;;
31112;SDS011;17763;48.730;9.136;2024-03-23T02:02:22;3.03;;;2.72;;
31112;SDS011;17763;48.730;9.136;2024-03-23T02:04:47;3.40;;;2.90;;
31112;SDS011;17763;48.730;9.136;2024-03-23T02:07:13;3.33;;;2.80;;
31112;SDS011;17763;48.730;9.136;2024-03-23T02:09:39;4.75;;;3.22;;
31112;SDS011;17763;48.730;9.136;2024-03-23T02:12:04;4.45;;;2.70;;
31112;SDS011;17763;48.730;9.136;2024-03-23T02:14:30;5.05;;;2.95;;
31112;SDS011;17763;48.730;9.136;2024-03-23T02:16:57;3.67;;;2.97;;
31112;SDS011;17763;48.730;9.136;2024-03-23T02:19:23;2.70;;;2.50;;
31112;SDS011;17763;48.730;9.136;2024-03-23T02:21:49;2.95;;;2.70;;
31112;SDS011;17763;48.730;9.136;2024-03-23T02:24:14;3.25;;;2.95;;
31112;SDS011;17763;48.730;9.136;2024-03-23T02:26:40;3.05;;;2.53;;
31112;SDS011;17763;48.730;9.136;2024-03-23T02:29:06;3.97;;;3.38;;
31112;SDS011;17763;48.730;9.136;2024-03-23T02:31:31;4.53;;;2.63;;
31112;SDS011;17763;48.730;9.136;2024-03-23T02:33:57;4.35;;;2.78;;
31112;SDS011;17763;48.730;9.136;2024-03-23T02:36:23;5.00;;;2.45;;
31112;SDS011;17763;48.730;9.136;2024-03-23T02:38:48;3.10;;;2.70;;
31112;SDS011;17763;48.730;9.136;2024-03-23T02:41:14;7.38;;;3.08;;
31112;SDS011;17763;48.730;9.136;2024-03-23T02:43:40;3.33;;;2.78;;
31112;SDS011;17763;48.730;9.136;2024-03-23T02:46:06;2.80;;;2.60;;
31112;SDS011;17763;48.730;9.136;2024-03-23T02:48:31;4.32;;;2.70;;
31112;SDS011;17763;48.730;9.136;2024-03-23T02:50:58;3.15;;;2.85;;
31112;SDS011;17763;48.730;9.136;2024-03-23T02:53:23;3.22;;;2.78;;
31112;SDS011;17763;48.730;9.136;2024-03-23T02:55:49;4.13;;;3.10;;
31112;SDS011;17763;48.730;9.136;2024-03-23T02:58:15;3.70;;;3.00;;
31112;SDS011;17763;48.730;9.136;2024-03-23T03:00:40;5.05;;;3.05;;
31112;SDS011;17763;48.730;9.136;2024-03-23T03:03:06;4.38;;;3.08;;
31112;SDS011;17763;48.730;9.136;2024-03-23T03:05:32;3.30;;;2.50;;
31112;SDS011;17763;48.730;9.136;2024-03-23T03:07:58;5.85;;;3.10;;
31112;SDS011;17763;48.730;9.136;2024-03-23T03:10:23;3.45;;;2.55;;
31112;SDS011;17763;48.730;9.136;2024-03-23T03:12:51;4.40;;;2.75;;
31112;SDS011;17763;48.730;9.136;2024-03-23T03:15:17;3.88;;;2.97;;
31112;SDS011;17763;48.730;9.136;2024-03-23T03:17:47;5.90;;;3.00;;
31112;SDS011;17763;48.730;9.136;2024-03-23T03:20:12;3.45;;;3.15;;
31112;SDS011;17763;48.730;9.136;2024-03-23T03:22:39;2.85;;;2.65;;
31112;SDS011;17763;48.730;9.136;2024-03-23T03:25:08;4.95;;;2.80;;
31112;SDS011;17763;48.730;9.136;2024-03-23T03:27:33;3.00;;;2.80;;
31112;SDS011;17763;48.730;9.136;2024-03-23T03:29:59;4.55;;;2.83;;
31112;SDS011;17763;48.730;9.136;2024-03-23T03:32:28;5.07;;;2.97;;
31112;SDS011;17763;48.730;9.136;2024-03-23T03:34:54;3.47;;;3.17;;
31112;SDS011;17763;48.730;9.136;2024-03-23T03:37:20;4.93;;;3.55;;
31112;SDS011;17763;48.730;9.136;2024-03-23T03:39:45;4.32;;;2.75;;
31112;SDS011;17763;48.730;9.136;2024-03-23T03:42:11;3.85;;;2.90;;
31112;SDS011;17763;48.730;9.136;2024-03-23T03:44:36;4.55;;;2.67;;
31112;SDS011;17763;48.730;9.136;2024-03-23T03:47:04;4.65;;;2.85;;
31112;SDS011;17763;48.730;9.136;2024-03-23T03:49:30;3.55;;;3.03;;
31112;SDS011;17763;48.730;9.136;2024-03-23T03:51:56;3.33;;;3.00;;
31112;SDS011;17763;48.730;9.136;2024-03-23T03:54:22;5.75;;;3.45;;
31112;SDS011;17763;48.730;9.136;2024-03-23T03:56:47;2.60;;;2.40;;
31112;SDS011;17763;48.730;9.136;2024-03-23T03:59:13;3.75;;;3.38;;
31112;SDS011;17763;48.730;9.136;2024-03-23T04:01:39;3.88;;;3.05;;
31112;SDS011;17763;48.730;9.136;2024-03-23T04:04:05;6.38;;;3.85;;
31112;SDS011;17763;48.730;9.136;2024-03-23T04:06:31;5.22;;;3.25;;
31112;SDS011;17763;48.730;9.136;2024-03-23T04:08:58;4.38;;;3.33;;
31112;SDS011;17763;48.730;9.136;2024-03-23T04:11:24;5.70;;;3.92;;
31112;SDS011;17763;48.730;9.136;2024-03-23T04:13:49;6.95;;;3.40;;
31112;SDS011;17763;48.730;9.136;2024-03-23T04:16:28;3.53;;;3.22;;
31112;SDS011;17763;48.730;9.136;2024-03-23T04:18:54;3.33;;;3.03;;
31112;SDS011;17763;48.730;9.136;2024-03-23T04:21:22;5.18;;;3.97;;
31112;SDS011;17763;48.730;9.136;2024-03-23T04:23:48;4.70;;;3.33;;
31112;SDS011;17763;48.730;9.136;2024-03-23T04:26:14;4.28;;;3.50;;
31112;SDS011;17763;48.730;9.136;2024-03-23T04:28:43;3.38;;;3.17;;
31112;SDS011;17763;48.730;9.136;2024-03-23T04:31:09;4.57;;;3.22;;
31112;SDS011;17763;48.730;9.136;2024-03-23T04:33:34;4.00;;;3.63;;
31112;SDS011;17763;48.730;9.136;2024-03-23T04:36:00;3.55;;;3.25;;
31112;SDS011;17763;48.730;9.136;2024-03-23T04:38:26;3.47;;;3.17;;
31112;SDS011;17763;48.730;9.136;2024-03-23T04:40:58;3.65;;;3.30;;
31112;SDS011;17763;48.730;9.136;2024-03-23T04:43:25;3.38;;;3.08;;
31112;SDS011;17763;48.730;9.136;2024-03-23T04:45:51;4.75;;;3.90;;
31112;SDS011;17763;48.730;9.136;2024-03-23T04:48:20;3.58;;;3.15;;
31112;SDS011;17763;48.730;9.136;2024-03-23T04:50:54;3.53;;;3.22;;
31112;SDS011;17763;48.730;9.136;2024-03-23T04:53:20;3.70;;;3.40;;
31112;SDS011;17763;48.730;9.136;2024-03-23T04:55:45;3.58;;;3.28;;
31112;SDS011;17763;48.730;9.136;2024-03-23T04:58:11;4.50;;;3.70;;
31112;SDS011;17763;48.730;9.136;2024-03-23T05:00:37;5.78;;;4.50;;
31112;SDS011;17763;48.730;9.136;2024-03-23T05:03:02;4.78;;;4.38;;
31112;SDS011;17763;48.730;9.136;2024-03-23T05:05:29;8.52;;;6.10;;
31112;SDS011;17763;48.730;9.136;2024-03-23T05:07:54;8.93;;;7.72;;
31112;SDS011;17763;48.730;9.136;2024-03-23T05:10:20;9.80;;;8.90;;
31112;SDS011;17763;48.730;9.136;2024-03-23T05:12:46;13.32;;;10.30;;
31112;SDS011;17763;48.730;9.136;2024-03-23T05:15:11;13.45;;;11.15;;
31112;SDS011;17763;48.730;9.136;2024-03-23T05:17:37;16.85;;;12.43;;
31112;SDS011;17763;48.730;9.136;2024-03-23T05:20:05;19.05;;;13.10;;
31112;SDS011;17763;48.730;9.136;2024-03-23T05:22:35;17.17;;;14.23;;
31112;SDS011;17763;48.730;9.136;2024-03-23T05:25:01;18.02;;;13.82;;
31112;SDS011;17763;48.730;9.136;2024-03-23T05:27:29;19.95;;;14.27;;
31112;SDS011;17763;48.730;9.136;2024-03-23T05:29:56;18.85;;;14.15;;
31112;SDS011;17763;48.730;9.136;2024-03-23T05:32:24;21.60;;;15.68;;
31112;SDS011;17763;48.730;9.136;2024-03-23T05:34:50;21.65;;;15.60;;
31112;SDS011;17763;48.730;9.136;2024-03-23T05:37:20;18.13;;;14.70;;
31112;SDS011;17763;48.730;9.136;2024-03-23T05:39:47;19.33;;;14.20;;
31112;SDS011;17763;48.730;9.136;2024-03-23T05:42:14;16.85;;;13.68;;
31112;SDS011;17763;48.730;9.136;2024-03-23T05:44:43;17.20;;;13.88;;
31112;SDS011;17763;48.730;9.136;2024-03-23T05:47:10;19.55;;;14.63;;
31112;SDS011;17763;48.730;9.136;2024-03-23T05:49:39;16.38;;;12.45;;
31112;SDS011;17763;48.730;9.136;2024-03-23T05:52:07;18.40;;;13.00;;
31112;SDS011;17763;48.730;9.136;2024-03-23T05:54:33;18.02;;;12.25;;
31112;SDS011;17763;48.730;9.136;2024-03-23T05:56:59;16.42;;;12.43;;
31112;SDS011;17763;48.730;9.136;2024-03-23T05:59:24;13.40;;;10.30;;
31112;SDS011;17763;48.730;9.136;2024-03-23T06:01:52;11.73;;;9.23;;
31112;SDS011;17763;48.730;9.136;2024-03-23T06:04:20;9.02;;;7.38;;
31112;SDS011;17763;48.730;9.136;2024-03-23T06:09:14;7.28;;;5.60;;
31112;SDS011;17763;48.730;9.136;2024-03-23T06:11:40;6.00;;;4.90;;
31112;SDS011;17763;48.730;9.136;2024-03-23T06:14:06;4.70;;;4.00;;
31112;SDS011;17763;48.730;9.136;2024-03-23T06:16:34;3.85;;;3.55;;
31112;SDS011;17763;48.730;9.136;2024-03-23T06:18:59;3.75;;;2.67;;
31112;SDS011;17763;48.730;9.136;2024-03-23T06:21:27;2.80;;;2.30;;
31112;SDS011;17763;48.730;9.136;2024-03-23T06:23:53;3.58;;;2.38;;
31112;SDS011;17763;48.730;9.136;2024-03-23T06:26:19;2.60;;;1.88;;
31112;SDS011;17763;48.730;9.136;2024-03-23T06:28:46;2.65;;;1.85;;
31112;SDS011;17763;48.730;9.136;2024-03-23T06:31:16;1.55;;;1.45;;
31112;SDS011;17763;48.730;9.136;2024-03-23T06:33:43;1.30;;;1.20;;
31112;SDS011;17763;48.730;9.136;2024-03-23T06:36:09;2.72;;;1.30;;
31112;SDS011;17763;48.730;9.136;2024-03-23T06:38:35;3.92;;;1.38;;
31112;SDS011;17763;48.730;9.136;2024-03-23T06:41:03;0.90;;;0.90;;
31112;SDS011;17763;48.730;9.136;2024-03-23T06:43:31;1.33;;;1.00;;
31112;SDS011;17763;48.730;9.136;2024-03-23T06:45:57;1.20;;;1.10;;
31112;SDS011;17763;48.730;9.136;2024-03-23T06:48:23;1.25;;;0.85;;
31112;SDS011;17763;48.730;9.136;2024-03-23T06:50:48;1.02;;;1.00;;
31112;SDS011;17763;48.730;9.136;2024-03-23T06:53:14;0.82;;;0.80;;
31112;SDS011;17763;48.730;9.136;2024-03-23T06:55:40;2.47;;;0.90;;
31112;SDS011;17763;48.730;9.136;2024-03-23T06:58:07;1.17;;;0.82;;
31112;SDS011;17763;48.730;9.136;2024-03-23T07:00:35;1.90;;;0.68;;
31112;SDS011;17763;48.730;9.136;2024-03-23T07:03:00;0.75;;;0.75;;
31112;SDS011;17763;48.730;9.136;2024-03-23T07:05:26;0.60;;;0.60;;
31112;SDS011;17763;48.730;9.136;2024-03-23T07:07:52;0.73;;;0.73;;
31112;SDS011;17763;48.730;9.136;2024-03-23T07:10:17;1.20;;;0.70;;
31112;SDS011;17763;48.730;9.136;2024-03-23T07:12:43;0.70;;;0.70;;
31112;SDS011;17763;48.730;9.136;2024-03-23T07:15:09;1.52;;;0.80;;
31112;SDS011;17763;48.730;9.136;2024-03-23T07:17:35;0.77;;;0.73;;
31112;SDS011;17763;48.730;9.136;2024-03-23T07:20:01;3.75;;;1.60;;
31112;SDS011;17763;48.730;9.136;2024-03-23T07:22:29;0.70;;;0.70;;
31112;SDS011;17763;48.730;9.136;2024-03-23T07:24:59;0.60;;;0.60;;
31112;SDS011;17763;48.730;9.136;2024-03-23T07:27:26;1.27;;;0.70;;
31112;SDS011;17763;48.730;9.136;2024-03-23T07:29:51;0.93;;;0.70;;
31112;SDS011;17763;48.730;9.136;2024-03-23T07:32:17;0.50;;;0.50;;
31112;SDS011;17763;48.730;9.136;2024-03-23T07:34:45;0.60;;;0.60;;
31112;SDS011;17763;48.730;9.136;2024-03-23T07:37:13;0.40;;;0.40;;
31112;SDS011;17763;48.730;9.136;2024-03-23T07:39:41;1.15;;;0.50;;
31112;SDS011;17763;48.730;9.136;2024-03-23T07:42:07;0.98;;;0.60;;
31112;SDS011;17763;48.730;9.136;2024-03-23T07:44:33;0.50;;;0.50;;
31112;SDS011;17763;48.730;9.136;2024-03-23T07:47:00;0.60;;;0.60;;
31112;SDS011;17763;48.730;9.136;2024-03-23T07:49:26;0.65;;;0.50;;
31112;SDS011;17763;48.730;9.136;2024-03-23T07:51:51;0.60;;;0.60;;
31112;SDS011;17763;48.730;9.136;2024-03-23T07:54:17;0.55;;;0.55;;
31112;SDS011;17763;48.730;9.136;2024-03-23T07:56:42;0.93;;;0.88;;
31112;SDS011;17763;48.730;9.136;2024-03-23T07:59:08;0.50;;;0.50;;
31112;SDS011;17763;48.730;9.136;2024-03-23T08:01:34;2.10;;;0.60;;
31112;SDS011;17763;48.730;9.136;2024-03-23T08:04:00;0.60;;;0.60;;
31112;SDS011;17763;48.730;9.136;2024-03-23T08:06:26;0.60;;;0.60;;
31112;SDS011;17763;48.730;9.136;2024-03-23T08:08:52;0.52;;;0.52;;
31112;SDS011;17763;48.730;9.136;2024-03-23T08:11:28;0.95;;;0.60;;
31112;SDS011;17763;48.730;9.136;2024-03-23T08:13:54;0.75;;;0.75;;
31112;SDS011;17763;48.730;9.136;2024-03-23T08:16:23;0.55;;;0.50;;
31112;SDS011;17763;48.730;9.136;2024-03-23T08:18:52;0.60;;;0.60;;
31112;SDS011;17763;48.730;9.136;2024-03-23T08:21:18;1.45;;;0.50;;
31112;SDS011;17763;48.730;9.136;2024-03-23T08:23:44;0.60;;;0.60;;
31112;SDS011;17763;48.730;9.136;2024-03-23T08:26:10;1.30;;;0.80;;
31112;SDS011;17763;48.730;9.136;2024-03-23T08:28:39;0.93;;;0.90;;
31112;SDS011;17763;48.730;9.136;2024-03-23T08:31:06;1.27;;;1.17;;
31112;SDS011;17763;48.730;9.136;2024-03-23T08:33:33;1.08;;;1.08;;
31112;SDS011;17763;48.730;9.136;2024-03-23T08:36:03;1.38;;;1.23;;
31112;SDS011;17763;48.730;9.136;2024-03-23T08:38:30;2.42;;;1.50;;
31112;SDS011;17763;48.730;9.136;2024-03-23T08:41:03;2.30;;;1.50;;
31112;SDS011;17763;48.730;9.136;2024-03-23T08:43:30;1.90;;;1.55;;
31112;SDS011;17763;48.730;9.136;2024-03-23T08:46:13;1.73;;;1.30;;
31112;SDS011;17763;48.730;9.136;2024-03-23T08:48:43;2.33;;;1.27;;
31112;SDS011;17763;48.730;9.136;2024-03-23T08:51:11;2.80;;;1.48;;
31112;SDS011;17763;48.730;9.136;2024-03-23T08:53:38;1.50;;;1.23;;
31112;SDS011;17763;48.730;9.136;2024-03-23T08:56:05;2.92;;;1.60;;
31112;SDS011;17763;48.730;9.136;2024-03-23T08:58:32;1.67;;;1.58;;
31112;SDS011;17763;48.730;9.136;2024-03-23T09:03:40;5.28;;;2.00;;
31112;SDS011;17763;48.730;9.136;2024-03-23T09:08:39;8.90;;;2.15;;
31112;SDS011;17763;48.730;9.136;2024-03-23T09:11:08;3.78;;;2.00;;
31112;SDS011;17763;48.730;9.136;2024-03-23T09:13:36;3.45;;;2.30;;
31112;SDS011;17763;48.730;9.136;2024-03-23T09:16:03;4.70;;;2.90;;
31112;SDS011;17763;48.730;9.136;2024-03-23T09:18:35;4.82;;;2.50;;
31112;SDS011;17763;48.730;9.136;2024-03-23T09:21:02;7.22;;;2.92;;
31112;SDS011;17763;48.730;9.136;2024-03-23T09:23:28;4.97;;;2.70;;
31112;SDS011;17763;48.730;9.136;2024-03-23T09:25:54;5.00;;;3.20;;
31112;SDS011;17763;48.730;9.136;2024-03-23T09:28:22;5.90;;;3.60;;
31112;SDS011;17763;48.730;9.136;2024-03-23T09:30:47;8.52;;;3.90;;
31112;SDS011;17763;48.730;9.136;2024-03-23T09:33:13;5.30;;;3.38;;
31112;SDS011;17763;48.730;9.136;2024-03-23T09:35:39;7.63;;;3.90;;
31112;SDS011;17763;48.730;9.136;2024-03-23T09:38:06;8.70;;;3.92;;
31112;SDS011;17763;48.730;9.136;2024-03-23T09:40:39;7.68;;;3.90;;
31112;SDS011;17763;48.730;9.136;2024-03-23T09:43:06;8.35;;;4.22;;
31112;SDS011;17763;48.730;9.136;2024-03-23T09:45:35;8.27;;;4.35;;
31112;SDS011;17763;48.730;9.136;2024-03-23T09:48:06;8.45;;;4.00;;
31112;SDS011;17763;48.730;9.136;2024-03-23T09:50:38;6.22;;;4.22;;
31112;SDS011;17763;48.730;9.136;2024-03-23T09:53:08;12.25;;;4.18;;
31112;SDS011;17763;48.730;9.136;2024-03-23T09:55:36;7.28;;;3.83;;
31112;SDS011;17763;48.730;9.136;2024-03-23T09:58:03;5.60;;;3.95;;
31112;SDS011;17763;48.730;9.136;2024-03-23T10:00:32;7.10;;;4.75;;
31112;SDS011;17763;48.730;9.136;2024-03-23T10:02:58;8.95;;;4.03;;
31112;SDS011;17763;48.730;9.136;2024-03-23T10:05:27;6.45;;;4.65;;
31112;SDS011;17763;48.730;9.136;2024-03-23T10:07:54;9.35;;;4.32;;
31112;SDS011;17763;48.730;9.136;2024-03-23T10:10:19;8.82;;;4.93;;
31112;SDS011;17763;48.730;9.136;2024-03-23T10:12:49;9.35;;;4.13;;
31112;SDS011;17763;48.730;9.136;2024-03-23T10:15:18;5.40;;;4.03;;
31112;SDS011;17763;48.730;9.136;2024-03-23T10:17:48;6.57;;;3.80;;
31112;SDS011;17763;48.730;9.136;2024-03-23T10:20:21;4.38;;;3.45;;
31112;SDS011;17763;48.730;9.136;2024-03-23T10:22:48;7.55;;;3.88;;
31112;SDS011;17763;48.730;9.136;2024-03-23T10:25:15;10.55;;;4.35;;
31112;SDS011;17763;48.730;9.136;2024-03-23T10:27:41;8.18;;;3.78;;
31112;SDS011;17763;48.730;9.136;2024-03-23T10:30:09;7.68;;;3.47;;
31112;SDS011;17763;48.730;9.136;2024-03-23T10:32:35;12.85;;;4.63;;
31112;SDS011;17763;48.730;9.136;2024-03-23T10:35:18;10.63;;;4.40;;
31112;SDS011;17763;48.730;9.136;2024-03-23T10:37:47;9.23;;;3.58;;
31112;SDS011;17763;48.730;9.136;2024-03-23T10:40:14;6.95;;;3.75;;
31112;SDS011;17763;48.730;9.136;2024-03-23T10:42:40;11.95;;;4.40;;
31112;SDS011;17763;48.730;9.136;2024-03-23T10:45:06;8.40;;;4.30;;
31112;SDS011;17763;48.730;9.136;2024-03-23T10:47:36;6.50;;;3.90;;
31112;SDS011;17763;48.730;9.136;2024-03-23T10:50:05;12.93;;;5.07;;
31112;SDS011;17763;48.730;9.136;2024-03-23T10:52:34;9.70;;;5.13;;
31112;SDS011;17763;48.730;9.136;2024-03-23T10:55:01;13.05;;;5.30;;
31112;SDS011;17763;48.730;9.136;2024-03-23T10:57:34;6.57;;;3.75;;
31112;SDS011;17763;48.730;9.136;2024-03-23T11:00:06;7.00;;;4.50;;
31112;SDS011;17763;48.730;9.136;2024-03-23T11:02:33;4.57;;;2.92;;
31112;SDS011;17763;48.730;9.136;2024-03-23T11:05:01;7.78;;;2.80;;
31112;SDS011;17763;48.730;9.136;2024-03-23T11:09:56;9.15;;;4.03;;
31112;SDS011;17763;48.730;9.136;2024-03-23T11:14:56;3.25;;;2.60;;
31112;SDS011;17763;48.730;9.136;2024-03-23T11:17:28;4.88;;;3.05;;
31112;SDS011;17763;48.730;9.136;2024-03-23T11:25:12;7.70;;;3.20;;
31112;SDS011;17763;48.730;9.136;2024-03-23T11:28:10;6.22;;;3.20;;
31112;SDS011;17763;48.730;9.136;2024-03-23T11:30:37;6.20;;;2.85;;
31112;SDS011;17763;48.730;9.136;2024-03-23T11:33:05;5.53;;;3.00;;
31112;SDS011;17763;48.730;9.136;2024-03-23T11:35:36;6.03;;;3.40;;
31112;SDS011;17763;48.730;9.136;2024-03-23T11:38:06;4.40;;;2.67;;
31112;SDS011;17763;48.730;9.136;2024-03-23T11:40:39;6.45;;;2.72;;
31112;SDS011;17763;48.730;9.136;2024-03-23T11:43:12;5.15;;;2.38;;
31112;SDS011;17763;48.730;9.136;2024-03-23T11:45:39;5.60;;;2.22;;
31112;SDS011;17763;48.730;9.136;2024-03-23T11:48:13;5.85;;;2.67;;
31112;SDS011;17763;48.730;9.136;2024-03-23T11:50:43;3.50;;;2.15;;
31112;SDS011;17763;48.730;9.136;2024-03-23T11:58:10;3.35;;;2.15;;
31112;SDS011;17763;48.730;9.136;2024-03-23T12:00:36;2.70;;;1.73;;
31112;SDS011;17763;48.730;9.136;2024-03-23T12:03:02;6.63;;;2.10;;
31112;SDS011;17763;48.730;9.136;2024-03-23T12:05:29;6.25;;;2.35;;
31112;SDS011;17763;48.730;9.136;2024-03-23T12:10:46;7.10;;;2.60;;
31112;SDS011;17763;48.730;9.136;2024-03-23T12:13:20;5.47;;;2.30;;
31112;SDS011;17763;48.730;9.136;2024-03-23T12:15:47;5.72;;;2.03;;
31112;SDS011;17763;48.730;9.136;2024-03-23T12:18:16;7.65;;;2.22;;
31112;SDS011;17763;48.730;9.136;2024-03-23T12:20:48;6.93;;;2.20;;
31112;SDS011;17763;48.730;9.136;2024-03-23T12:23:17;8.57;;;2.15;;
31112;SDS011;17763;48.730;9.136;2024-03-23T12:25:42;6.05;;;2.00;;
31112;SDS011;17763;48.730;9.136;2024-03-23T12:28:08;5.85;;;1.98;;
31112;SDS011;17763;48.730;9.136;2024-03-23T12:30:38;8.18;;;1.90;;
31112;SDS011;17763;48.730;9.136;2024-03-23T12:33:07;4.90;;;3.15;;
31112;SDS011;17763;48.730;9.136;2024-03-23T12:35:32;5.75;;;2.13;;
31112;SDS011;17763;48.730;9.136;2024-03-23T12:37:58;7.15;;;2.20;;
31112;SDS011;17763;48.730;9.136;2024-03-23T12:40:24;5.47;;;1.98;;
31112;SDS011;17763;48.730;9.136;2024-03-23T12:42:50;3.95;;;1.92;;
31112;SDS011;17763;48.730;9.136;2024-03-23T12:45:15;7.38;;;2.30;;
31112;SDS011;17763;48.730;9.136;2024-03-23T12:47:41;11.75;;;3.00;;
31112;SDS011;17763;48.730;9.136;2024-03-23T12:50:07;12.07;;;2.70;;
31112;SDS011;17763;48.730;9.136;2024-03-23T12:52:34;8.52;;;2.75;;
31112;SDS011;17763;48.730;9.136;2024-03-23T12:55:00;6.25;;;2.58;;
31112;SDS011;17763;48.730;9.136;2024-03-23T12:57:26;15.98;;;3.92;;
31112;SDS011;17763;48.730;9.136;2024-03-23T12:59:52;8.05;;;3.33;;
31112;SDS011;17763;48.730;9.136;2024-03-23T13:02:21;10.85;;;3.30;;
31112;SDS011;17763;48.730;9.136;2024-03-23T13:04:53;6.60;;;2.83;;
31112;SDS011;17763;48.730;9.136;2024-03-23T13:07:20;6.82;;;2.92;;
31112;SDS011;17763;48.730;9.136;2024-03-23T13:09:46;7.05;;;2.92;;
31112;SDS011;17763;48.730;9.136;2024-03-23T13:12:12;6.57;;;2.92;;
31112;SDS011;17763;48.730;9.136;2024-03-23T13:14:40;11.05;;;3.30;;
31112;SDS011;17763;48.730;9.136;2024-03-23T13:17:08;10.93;;;3.47;;
31112;SDS011;17763;48.730;9.136;2024-03-23T13:19:36;10.68;;;2.80;;
31112;SDS011;17763;48.730;9.136;2024-03-23T13:22:02;6.10;;;2.60;;
31112;SDS011;17763;48.730;9.136;2024-03-23T13:24:31;7.43;;;3.22;;
31112;SDS011;17763;48.730;9.136;2024-03-23T13:26:57;6.13;;;2.20;;
31112;SDS011;17763;48.730;9.136;2024-03-23T13:29:23;9.32;;;1.52;;
31112;SDS011;17763;48.730;9.136;2024-03-23T13:31:49;3.65;;;1.35;;
31112;SDS011;17763;48.730;9.136;2024-03-23T13:34:16;4.20;;;1.33;;
31112;SDS011;17763;48.730;9.136;2024-03-23T13:36:43;2.58;;;0.90;;
31112;SDS011;17763;48.730;9.136;2024-03-23T13:39:12;3.58;;;1.30;;
31112;SDS011;17763;48.730;9.136;2024-03-23T13:41:39;8.27;;;1.40;;
31112;SDS011;17763;48.730;9.136;2024-03-23T13:44:06;2.25;;;0.95;;
31112;SDS011;17763;48.730;9.136;2024-03-23T13:46:32;2.22;;;1.30;;
31112;SDS011;17763;48.730;9.136;2024-03-23T13:49:00;7.65;;;1.52;;
31112;SDS011;17763;48.730;9.136;2024-03-23T13:51:26;3.80;;;1.23;;
31112;SDS011;17763;48.730;9.136;2024-03-23T13:53:53;1.58;;;1.15;;
31112;SDS011;17763;48.730;9.136;2024-03-23T13:56:19;2.03;;;1.23;;
31112;SDS011;17763;48.730;9.136;2024-03-23T13:58:45;5.53;;;1.63;;
31112;SDS011;17763;48.730;9.136;2024-03-23T14:01:12;4.18;;;1.30;;
31112;SDS011;17763;48.730;9.136;2024-03-23T14:03:38;4.15;;;1.30;;
31112;SDS011;17763;48.730;9.136;2024-03-23T14:06:05;4.75;;;1.75;;
31112;SDS011;17763;48.730;9.136;2024-03-23T14:08:32;4.43;;;1.70;;
31112;SDS011;17763;48.730;9.136;2024-03-23T14:11:00;5.05;;;1.80;;
31112;SDS011;17763;48.730;9.136;2024-03-23T14:13:27;5.78;;;1.83;;
31112;SDS011;17763;48.730;9.136;2024-03-23T14:15:53;4.95;;;1.52;;
31112;SDS011;17763;48.730;9.136;2024-03-23T14:18:19;8.48;;;1.98;;
31112;SDS011;17763;48.730;9.136;2024-03-23T14:20:47;2.13;;;1.38;;
31112;SDS011;17763;48.730;9.136;2024-03-23T14:23:13;3.05;;;1.10;;
31112;SDS011;17763;48.730;9.136;2024-03-23T14:25:41;2.17;;;0.88;;
31112;SDS011;17763;48.730;9.136;2024-03-23T14:28:10;2.22;;;1.00;;
31112;SDS011;17763;48.730;9.136;2024-03-23T14:30:40;2.35;;;1.05;;
31112;SDS011;17763;48.730;9.136;2024-03-23T14:33:11;2.65;;;1.30;;
31112;SDS011;17763;48.730;9.136;2024-03-23T14:35:37;1.48;;;1.25;;
31112;SDS011;17763;48.730;9.136;2024-03-23T14:38:03;1.80;;;0.80;;
31112;SDS011;17763;48.730;9.136;2024-03-23T14:40:29;3.08;;;1.00;;
31112;SDS011;17763;48.730;9.136;2024-03-23T14:42:57;3.10;;;1.52;;
31112;SDS011;17763;48.730;9.136;2024-03-23T14:45:23;2.30;;;1.40;;
31112;SDS011;17763;48.730;9.136;2024-03-23T14:47:51;2.67;;;1.13;;
31112;SDS011;17763;48.730;9.136;2024-03-23T14:50:17;4.15;;;1.80;;
31112;SDS011;17763;48.730;9.136;2024-03-23T14:52:46;4.25;;;1.42;;
31112;SDS011;17763;48.730;9.136;2024-03-23T14:55:12;4.53;;;1.55;;
31112;SDS011;17763;48.730;9.136;2024-03-23T14:57:38;2.50;;;1.70;;
31112;SDS011;17763;48.730;9.136;2024-03-23T15:00:13;3.13;;;1.38;;
31112;SDS011;17763;48.730;9.136;2024-03-23T15:02:39;4.72;;;1.63;;
31112;SDS011;17763;48.730;9.136;2024-03-23T15:05:05;1.88;;;1.33;;
31112;SDS011;17763;48.730;9.136;2024-03-23T15:07:35;3.45;;;1.35;;
31112;SDS011;17763;48.730;9.136;2024-03-23T15:10:03;3.95;;;1.40;;
31112;SDS011;17763;48.730;9.136;2024-03-23T15:12:33;1.80;;;1.50;;
31112;SDS011;17763;48.730;9.136;2024-03-23T15:14:59;2.20;;;1.13;;
31112;SDS011;17763;48.730;9.136;2024-03-23T15:17:25;3.97;;;1.85;;
31112;SDS011;17763;48.730;9.136;2024-03-23T15:19:51;4.53;;;1.60;;
31112;SDS011;17763;48.730;9.136;2024-03-23T15:22:18;3.83;;;2.03;;
31112;SDS011;17763;48.730;9.136;2024-03-23T15:24:44;2.83;;;1.73;;
31112;SDS011;17763;48.730;9.136;2024-03-23T15:27:10;3.70;;;1.27;;
31112;SDS011;17763;48.730;9.136;2024-03-23T15:29:36;3.75;;;1.30;;
31112;SDS011;17763;48.730;9.136;2024-03-23T15:32:02;3.90;;;1.50;;
31112;SDS011;17763;48.730;9.136;2024-03-23T15:34:28;4.85;;;1.70;;
31112;SDS011;17763;48.730;9.136;2024-03-23T15:36:56;1.75;;;1.25;;
31112;SDS011;17763;48.730;9.136;2024-03-23T15:39:22;1.73;;;1.35;;
31112;SDS011;17763;48.730;9.136;2024-03-23T15:41:48;2.80;;;1.20;;
31112;SDS011;17763;48.730;9.136;2024-03-23T15:44:14;1.77;;;1.50;;
31112;SDS011;17763;48.730;9.136;2024-03-23T15:46:39;4.43;;;1.38;;
31112;SDS011;17763;48.730;9.136;2024-03-23T15:49:07;3.00;;;1.15;;
31112;SDS011;17763;48.730;9.136;2024-03-23T15:51:33;2.90;;;1.48;;
31112;SDS011;17763;48.730;9.136;2024-03-23T15:54:01;5.00;;;1.50;;
31112;SDS011;17763;48.730;9.136;2024-03-23T15:56:31;4.72;;;1.80;;
31112;SDS011;17763;48.730;9.136;2024-03-23T16:01:31;1.67;;;1.08;;
31112;SDS011;17763;48.730;9.136;2024-03-23T16:04:00;3.63;;;1.27;;
31112;SDS011;17763;48.730;9.136;2024-03-23T16:06:26;3.08;;;1.25;;